createdAt,value
2022-11-20T00:00:17.542Z,0.58
2022-11-20T00:02:43.858Z,0.34
2022-11-20T00:05:10.351Z,0.62
2022-11-20T00:07:36.829Z,0.50
2022-11-20T00:10:03.490Z,0.46
2022-11-20T00:12:29.894Z,0.34
2022-11-20T00:14:56.315Z,0.67
2022-11-20T00:17:22.732Z,0.74
2022-11-20T00:19:49.373Z,0.75
2022-11-20T00:22:16.010Z,0.52
2022-11-20T00:24:43.246Z,0.47
2022-11-20T00:27:09.865Z,0.66
2022-11-20T00:29:36.285Z,0.68
2022-11-20T00:32:02.786Z,0.79
2022-11-20T00:34:29.180Z,0.50
2022-11-20T00:36:55.621Z,0.74
2022-11-20T00:39:22.365Z,0.50
2022-11-20T00:41:49.065Z,0.51
2022-11-20T00:44:15.644Z,0.56
2022-11-20T00:46:42.081Z,0.51
2022-11-20T00:49:08.534Z,0.59
2022-11-20T00:51:34.925Z,0.38
2022-11-20T00:54:02.966Z,0.45
2022-11-20T00:56:29.746Z,0.48
2022-11-20T00:58:56.267Z,0.48
2022-11-20T01:01:25.869Z,0.75
2022-11-20T01:03:53.982Z,0.78
2022-11-20T01:06:28.859Z,0.64
2022-11-20T01:08:57.875Z,0.44
2022-11-20T01:11:27.745Z,0.40
2022-11-20T01:13:55.873Z,0.45
2022-11-20T01:16:23.696Z,0.36
2022-11-20T01:18:52.017Z,0.48
2022-11-20T01:21:22.899Z,0.51
2022-11-20T01:23:50.303Z,0.59
2022-11-20T01:26:22.651Z,0.54
2022-11-20T01:28:49.561Z,0.82
2022-11-20T01:31:22.886Z,0.93
2022-11-20T01:33:52.341Z,0.55
2022-11-20T01:36:21.046Z,0.62
2022-11-20T01:38:48.006Z,0.74
2022-11-20T01:41:34.982Z,0.77
2022-11-20T01:44:02.377Z,0.78
2022-11-20T01:46:28.971Z,0.75
2022-11-20T01:49:06.718Z,0.74
2022-11-20T01:51:42.971Z,0.57
2022-11-20T01:54:20.005Z,0.50
2022-11-20T01:56:52.175Z,0.81
2022-11-20T01:59:21.806Z,0.58
2022-11-20T02:01:48.652Z,0.99
2022-11-20T02:04:16.631Z,0.90
2022-11-20T02:07:01.714Z,0.80
2022-11-20T02:09:29.042Z,0.94
2022-11-20T02:11:56.124Z,0.71
2022-11-20T02:14:24.066Z,0.57
2022-11-20T02:16:51.223Z,0.88
2022-11-20T02:19:24.186Z,0.65
2022-11-20T02:22:01.377Z,0.91
2022-11-20T02:24:27.868Z,0.70
2022-11-20T02:26:58.097Z,0.84
2022-11-20T02:29:28.842Z,0.67
2022-11-20T02:31:56.305Z,0.78
2022-11-20T02:34:22.734Z,0.44
2022-11-20T02:36:50.592Z,0.80
2022-11-20T02:39:20.173Z,0.81
2022-11-20T02:41:47.542Z,0.66
2022-11-20T02:44:14.029Z,0.59
2022-11-20T02:46:40.655Z,0.60
2022-11-20T02:49:07.093Z,0.52
2022-11-20T02:51:33.598Z,0.71
2022-11-20T02:54:00.109Z,0.71
2022-11-20T02:56:26.802Z,0.85
2022-11-20T02:58:53.802Z,0.79
2022-11-20T03:01:20.350Z,0.79
2022-11-20T03:03:46.884Z,0.65
2022-11-20T03:06:13.311Z,0.85
2022-11-20T03:08:39.704Z,0.75
2022-11-20T03:11:08.025Z,0.59
2022-11-20T03:13:34.803Z,0.56
2022-11-20T03:16:31.656Z,0.60
2022-11-20T03:18:58.167Z,0.54
2022-11-20T03:21:24.566Z,0.63
2022-11-20T03:23:50.993Z,0.47
2022-11-20T03:26:20.320Z,0.48
2022-11-20T03:28:52.352Z,0.39
2022-11-20T03:31:21.656Z,0.45
2022-11-20T03:33:48.429Z,0.42
2022-11-20T03:36:16.387Z,0.43
2022-11-20T03:38:43.347Z,0.28
2022-11-20T03:41:12.858Z,0.32
2022-11-20T03:43:39.743Z,0.42
2022-11-20T03:46:06.830Z,0.48
2022-11-20T03:48:33.346Z,0.40
2022-11-20T03:51:23.714Z,0.31
2022-11-20T03:53:52.036Z,0.45
2022-11-20T03:56:20.315Z,0.35
2022-11-20T03:58:46.840Z,0.21
2022-11-20T04:01:19.200Z,0.35
2022-11-20T04:03:46.493Z,0.35
2022-11-20T04:06:21.795Z,0.46
2022-11-20T04:08:52.344Z,0.53
2022-11-20T04:11:22.649Z,0.68
2022-11-20T04:13:54.869Z,0.46
2022-11-20T04:16:22.367Z,0.44
2022-11-20T04:18:52.805Z,0.46
2022-11-20T04:21:19.357Z,0.38
2022-11-20T04:23:45.747Z,0.43
2022-11-20T04:26:13.150Z,0.35
2022-11-20T04:28:39.914Z,0.17
2022-11-20T04:31:12.070Z,-0.02
2022-11-20T04:33:39.358Z,-0.07
2022-11-20T04:36:12.854Z,-0.27
2022-11-20T04:38:40.334Z,-0.15
2022-11-20T04:41:08.991Z,-0.16
2022-11-20T04:43:35.479Z,0.00
2022-11-20T04:46:02.374Z,-0.08
2022-11-20T04:48:30.342Z,0.06
2022-11-20T04:50:57.224Z,0.03
2022-11-20T04:53:24.519Z,0.01
2022-11-20T04:55:50.908Z,-0.11
2022-11-20T04:58:17.443Z,-0.12
2022-11-20T05:00:43.873Z,-0.01
2022-11-20T05:03:10.293Z,0.08
2022-11-20T05:05:36.778Z,0.05
2022-11-20T05:08:03.642Z,0.01
2022-11-20T05:10:30.094Z,-0.01
2022-11-20T05:12:57.947Z,-0.04
2022-11-20T05:15:24.460Z,-0.06
2022-11-20T05:17:52.081Z,-0.01
2022-11-20T05:20:19.124Z,-0.11
2022-11-20T05:22:45.942Z,-0.15
2022-11-20T05:25:12.998Z,-0.24
2022-11-20T05:27:39.477Z,-0.28
2022-11-20T05:30:06.954Z,-0.15
2022-11-20T05:32:33.447Z,-0.15
2022-11-20T05:34:59.861Z,-0.10
2022-11-20T05:37:26.350Z,-0.01
2022-11-20T05:39:53.442Z,0.21
2022-11-20T05:42:31.693Z,0.07
2022-11-20T05:44:59.034Z,-0.01
2022-11-20T05:47:26.226Z,0.13
2022-11-20T05:49:52.733Z,0.06
2022-11-20T05:52:19.215Z,-0.01
2022-11-20T05:54:45.687Z,-0.05
2022-11-20T05:57:12.274Z,0.04
2022-11-20T05:59:38.710Z,-0.06
2022-11-20T06:02:05.213Z,-0.08
2022-11-20T06:04:31.685Z,-0.21
2022-11-20T06:06:58.127Z,-0.10
2022-11-20T06:09:24.586Z,-0.13
2022-11-20T06:11:51.031Z,-0.15
2022-11-20T06:14:17.448Z,-0.09
2022-11-20T06:16:43.925Z,-0.20
2022-11-20T06:19:10.358Z,-0.24
2022-11-20T06:21:36.834Z,-0.05
2022-11-20T06:24:03.417Z,-0.13
2022-11-20T06:26:31.643Z,-0.15
2022-11-20T06:28:58.214Z,-0.19
2022-11-20T06:31:25.942Z,-0.34
2022-11-20T06:33:53.465Z,-0.27
2022-11-20T06:36:22.839Z,-0.42
2022-11-20T06:38:49.629Z,-0.36
2022-11-20T06:41:18.829Z,-0.42
2022-11-20T06:43:45.557Z,-0.39
2022-11-20T06:46:14.140Z,-0.28
2022-11-20T06:48:41.487Z,-0.19
2022-11-20T06:51:08.755Z,-0.16
2022-11-20T06:53:36.562Z,-0.09
2022-11-20T06:56:03.359Z,-0.21
2022-11-20T06:58:32.230Z,-0.24
2022-11-20T07:01:00.414Z,-0.24
2022-11-20T07:03:26.900Z,-0.25
2022-11-20T07:05:56.527Z,-0.24
2022-11-20T07:08:23.342Z,-0.14
2022-11-20T07:10:50.002Z,-0.12
2022-11-20T07:13:16.991Z,-0.19
2022-11-20T07:15:43.516Z,-0.14
2022-11-20T07:18:10.185Z,-0.16
2022-11-20T07:20:36.641Z,-0.13
2022-11-20T07:23:03.127Z,-0.02
2022-11-20T07:25:29.837Z,0.41
2022-11-20T07:28:00.570Z,0.14
2022-11-20T07:30:28.407Z,0.02
2022-11-20T07:32:56.704Z,-0.06
2022-11-20T07:35:23.780Z,-0.02
2022-11-20T07:37:50.286Z,0.02
2022-11-20T07:40:17.932Z,-0.06
2022-11-20T07:42:51.991Z,-0.02
2022-11-20T07:45:19.723Z,-0.03
2022-11-20T07:47:46.422Z,-0.01
2022-11-20T07:50:14.007Z,0.19
2022-11-20T07:52:41.346Z,0.28
2022-11-20T07:55:09.286Z,0.32
2022-11-20T07:57:35.750Z,0.31
2022-11-20T08:00:02.567Z,0.25
2022-11-20T08:02:29.101Z,0.18
2022-11-20T08:04:55.577Z,0.26
2022-11-20T08:07:22.029Z,0.38
2022-11-20T08:09:48.494Z,0.36
2022-11-20T08:12:40.147Z,0.50
2022-11-20T08:15:12.760Z,0.72
2022-11-20T08:17:39.682Z,0.89
2022-11-20T08:20:06.666Z,1.20
2022-11-20T08:22:33.303Z,1.52
2022-11-20T08:24:59.797Z,1.77
2022-11-20T08:27:26.259Z,1.65
2022-11-20T08:29:52.669Z,1.41
2022-11-20T08:32:19.250Z,1.36
2022-11-20T08:34:45.771Z,1.41
2022-11-20T08:37:12.306Z,0.80
2022-11-20T08:39:38.821Z,0.69
2022-11-20T08:42:08.996Z,0.78
2022-11-20T08:44:35.677Z,0.57
2022-11-20T08:47:02.155Z,0.48
2022-11-20T08:49:28.752Z,0.70
2022-11-20T08:51:56.201Z,0.67
2022-11-20T08:54:23.536Z,0.56
2022-11-20T08:56:49.987Z,0.45
2022-11-20T08:59:43.788Z,0.40
2022-11-20T09:02:02.894Z,0.42
2022-11-20T09:04:30.010Z,0.35
2022-11-20T09:06:56.466Z,0.47
2022-11-20T09:09:23.373Z,0.76
2022-11-20T09:11:50.902Z,0.73
2022-11-20T09:14:17.423Z,0.77
2022-11-20T09:16:46.063Z,1.01
2022-11-20T09:19:34.504Z,0.84
2022-11-20T09:21:59.987Z,0.89
2022-11-20T09:24:27.503Z,0.89
2022-11-20T09:26:53.898Z,0.93
2022-11-20T09:29:20.589Z,1.15
2022-11-20T09:31:47.306Z,0.93
2022-11-20T09:34:13.709Z,0.76
2022-11-20T09:36:40.116Z,0.88
2022-11-20T09:39:06.537Z,1.14
2022-11-20T09:42:00.728Z,1.05
2022-11-20T09:44:48.369Z,0.96
2022-11-20T09:47:14.735Z,0.88
2022-11-20T09:50:24.901Z,0.94
2022-11-20T09:53:10.118Z,1.01
2022-11-20T09:55:38.016Z,1.11
2022-11-20T09:58:08.563Z,1.06
2022-11-20T10:00:38.030Z,1.21
2022-11-20T10:03:27.622Z,1.20
2022-11-20T10:05:55.819Z,1.38
2022-11-20T10:08:32.858Z,1.46
2022-11-20T10:11:26.277Z,1.53
2022-11-20T10:14:09.036Z,1.36
2022-11-20T10:17:02.953Z,1.48
2022-11-20T10:19:49.438Z,1.49
2022-11-20T10:22:31.056Z,1.54
2022-11-20T10:25:19.112Z,1.57
2022-11-20T10:28:04.373Z,1.55
2022-11-20T10:30:35.886Z,1.55
2022-11-20T10:33:07.534Z,1.61
2022-11-20T10:35:45.818Z,1.40
2022-11-20T10:38:24.432Z,1.53
2022-11-20T10:41:17.184Z,1.77
2022-11-20T10:43:45.279Z,1.87
2022-11-20T10:46:17.947Z,1.76
2022-11-20T10:48:46.125Z,1.62
2022-11-20T10:51:38.202Z,1.76
2022-11-20T10:54:21.204Z,1.55
2022-11-20T10:56:51.625Z,1.57
2022-11-20T10:59:21.124Z,1.60
2022-11-20T11:01:48.955Z,1.81
2022-11-20T11:04:23.759Z,1.63
2022-11-20T11:06:51.083Z,1.84
2022-11-20T11:09:27.618Z,2.06
2022-11-20T11:11:54.058Z,3.05
2022-11-20T11:14:20.454Z,4.36
2022-11-20T11:16:57.996Z,4.86
2022-11-20T11:19:24.699Z,4.50
2022-11-20T11:21:55.800Z,3.55
2022-11-20T11:24:41.556Z,3.16
2022-11-20T11:27:17.114Z,3.69
2022-11-20T11:29:44.392Z,4.84
2022-11-20T11:32:15.989Z,6.00
2022-11-20T11:34:42.575Z,7.19
2022-11-20T11:37:18.487Z,7.00
2022-11-20T11:39:49.385Z,7.78
2022-11-20T11:42:21.874Z,8.30
2022-11-20T11:45:07.618Z,8.53
2022-11-20T11:47:38.535Z,8.17
2022-11-20T11:50:11.001Z,8.01
2022-11-20T11:52:45.306Z,7.77
2022-11-20T11:55:22.355Z,7.04
2022-11-20T11:58:12.154Z,8.99
2022-11-20T12:00:42.274Z,9.24
2022-11-20T12:03:22.108Z,8.73
2022-11-20T12:05:54.879Z,8.70
2022-11-20T12:08:47.990Z,9.18
2022-11-20T12:11:24.097Z,8.06
2022-11-20T12:14:05.312Z,8.00
2022-11-20T12:16:37.097Z,8.70
2022-11-20T12:19:09.401Z,8.05
2022-11-20T12:21:50.199Z,8.99
2022-11-20T12:24:28.866Z,8.71
2022-11-20T12:27:23.241Z,7.99
2022-11-20T12:30:04.068Z,8.01
2022-11-20T12:32:55.737Z,6.76
2022-11-20T12:35:37.414Z,5.36
2022-11-20T12:38:34.812Z,4.32
2022-11-20T12:41:07.380Z,4.18
2022-11-20T12:44:21.725Z,4.32
2022-11-20T12:46:54.982Z,4.45
2022-11-20T12:49:36.413Z,4.20
2022-11-20T12:52:17.969Z,3.86
2022-11-20T12:54:55.386Z,3.84
2022-11-20T12:57:50.298Z,4.83
2022-11-20T13:00:20.889Z,7.35
2022-11-20T13:03:06.046Z,8.26
2022-11-20T13:05:40.167Z,8.18
2022-11-20T13:08:21.313Z,10.36
2022-11-20T13:10:52.854Z,9.40
2022-11-20T13:13:31.009Z,10.24
2022-11-20T13:16:09.423Z,10.83
2022-11-20T13:18:42.632Z,9.83
2022-11-20T13:21:50.277Z,10.12
2022-11-20T13:24:20.165Z,11.33
2022-11-20T13:26:47.602Z,11.69
2022-11-20T13:29:20.649Z,11.35
2022-11-20T13:31:49.135Z,11.04
2022-11-20T13:34:27.466Z,10.20
2022-11-20T13:36:56.655Z,10.18
2022-11-20T13:39:28.147Z,9.49
2022-11-20T13:41:59.721Z,9.50
2022-11-20T13:44:42.930Z,10.37
2022-11-20T13:47:23.436Z,9.06
2022-11-20T13:49:50.357Z,7.40
2022-11-20T13:52:50.694Z,8.50
2022-11-20T13:55:32.076Z,9.12
2022-11-20T13:58:25.056Z,8.38
2022-11-20T14:00:58.528Z,7.74
2022-11-20T14:03:51.139Z,9.05
2022-11-20T14:06:32.309Z,10.43
2022-11-20T14:09:00.001Z,9.66
2022-11-20T14:11:31.215Z,9.67
2022-11-20T14:14:16.420Z,7.66
2022-11-20T14:16:45.176Z,5.30
2022-11-20T14:19:28.006Z,3.95
2022-11-20T14:22:07.050Z,3.62
2022-11-20T14:24:34.098Z,2.89
2022-11-20T14:27:00.867Z,2.42
2022-11-20T14:29:35.749Z,2.46
2022-11-20T14:32:03.833Z,2.25
2022-11-20T14:34:33.517Z,1.85
2022-11-20T14:37:02.682Z,1.78
2022-11-20T14:39:43.244Z,1.86
2022-11-20T14:42:21.780Z,1.69
2022-11-20T14:44:50.302Z,1.40
2022-11-20T14:47:21.846Z,1.14
2022-11-20T14:49:49.680Z,1.10
2022-11-20T14:52:21.565Z,0.98
2022-11-20T14:54:53.796Z,0.84
2022-11-20T14:57:27.974Z,0.66
2022-11-20T15:00:12.570Z,0.49
2022-11-20T15:02:47.308Z,0.31
2022-11-20T15:05:15.148Z,0.14
2022-11-20T15:07:46.666Z,-0.05
2022-11-20T15:10:27.594Z,-0.20
2022-11-20T15:12:55.351Z,-0.27
2022-11-20T15:15:36.943Z,-0.34
2022-11-20T15:18:04.945Z,-0.38
2022-11-20T15:20:33.981Z,-0.53
2022-11-20T15:23:00.508Z,-0.66
2022-11-20T15:25:27.229Z,-0.77
2022-11-20T15:27:57.048Z,-0.97
2022-11-20T15:30:24.876Z,-1.10
2022-11-20T15:32:51.282Z,-1.17
2022-11-20T15:35:17.777Z,-1.27
2022-11-20T15:37:44.636Z,-1.42
2022-11-20T15:40:11.422Z,-1.40
2022-11-20T15:42:37.879Z,-1.51
2022-11-20T15:45:04.734Z,-1.49
2022-11-20T15:47:34.582Z,-1.51
2022-11-20T15:50:01.171Z,-1.62
2022-11-20T15:52:30.562Z,-1.60
2022-11-20T15:55:08.274Z,-1.59
2022-11-20T15:57:36.198Z,-1.52
2022-11-20T16:00:03.486Z,-1.47
2022-11-20T16:02:29.889Z,-1.39
2022-11-20T16:04:56.443Z,-1.39
2022-11-20T16:07:23.200Z,-1.40
2022-11-20T16:09:49.637Z,-1.28
2022-11-20T16:12:36.027Z,-1.39
2022-11-20T16:15:21.076Z,-1.43
2022-11-20T16:17:47.531Z,-1.45
2022-11-20T16:20:14.057Z,-1.51
2022-11-20T16:22:40.457Z,-1.70
2022-11-20T16:25:07.079Z,-1.82
2022-11-20T16:27:33.469Z,-1.93
2022-11-20T16:29:59.875Z,-2.04
2022-11-20T16:32:26.440Z,-2.10
2022-11-20T16:34:52.822Z,-2.19
2022-11-20T16:37:19.222Z,-2.33
2022-11-20T16:39:46.675Z,-2.21
2022-11-20T16:42:13.284Z,-2.36
2022-11-20T16:44:39.695Z,-2.20
2022-11-20T16:47:06.310Z,-2.33
2022-11-20T16:49:33.288Z,-2.45
2022-11-20T16:51:59.885Z,-2.40
2022-11-20T16:54:26.838Z,-2.29
2022-11-20T16:56:54.178Z,-2.06
2022-11-20T16:59:20.645Z,-2.03
2022-11-20T17:01:47.150Z,-2.05
2022-11-20T17:04:13.675Z,-1.95
2022-11-20T17:06:44.096Z,-1.82
2022-11-20T17:09:10.932Z,-1.87
2022-11-20T17:11:37.779Z,-1.84
2022-11-20T17:14:04.440Z,-2.03
2022-11-20T17:16:31.469Z,-2.05
2022-11-20T17:19:03.018Z,-2.15
2022-11-20T17:21:30.660Z,-2.16
2022-11-20T17:24:02.119Z,-2.14
2022-11-20T17:26:28.791Z,-2.26
2022-11-20T17:29:01.111Z,-2.27
2022-11-20T17:31:28.960Z,-2.23
2022-11-20T17:33:55.564Z,-2.23
2022-11-20T17:36:22.575Z,-2.29
2022-11-20T17:38:49.272Z,-2.40
2022-11-20T17:41:18.433Z,-2.32
2022-11-20T17:43:45.689Z,-2.35
2022-11-20T17:46:20.322Z,-2.25
2022-11-20T17:48:48.443Z,-2.07
2022-11-20T17:51:20.809Z,-2.20
2022-11-20T17:53:52.266Z,-2.35
2022-11-20T17:56:37.921Z,-2.59
2022-11-20T17:59:05.859Z,-2.44
2022-11-20T18:01:32.374Z,-2.35
2022-11-20T18:03:58.999Z,-2.37
2022-11-20T18:06:27.620Z,-2.43
2022-11-20T18:08:54.445Z,-2.41
2022-11-20T18:11:40.852Z,-2.69
2022-11-20T18:14:30.753Z,-2.75
2022-11-20T18:17:02.364Z,-2.80
2022-11-20T18:19:32.878Z,-2.95
2022-11-20T18:22:01.732Z,-2.97
2022-11-20T18:24:28.537Z,-2.86
2022-11-20T18:26:55.196Z,-2.89
2022-11-20T18:29:22.334Z,-3.00
2022-11-20T18:31:49.095Z,-3.10
2022-11-20T18:34:15.770Z,-3.02
2022-11-20T18:36:45.053Z,-3.06
2022-11-20T18:39:12.875Z,-2.88
2022-11-20T18:41:58.224Z,-2.99
2022-11-20T18:44:45.656Z,-2.84
2022-11-20T18:47:15.185Z,-2.87
2022-11-20T18:49:55.003Z,-2.69
2022-11-20T18:52:24.264Z,-2.58
2022-11-20T18:54:51.270Z,-2.58
2022-11-20T18:57:19.083Z,-2.64
2022-11-20T18:59:45.922Z,-2.86
2022-11-20T19:02:17.061Z,-2.96
2022-11-20T19:04:43.609Z,-3.06
2022-11-20T19:07:12.062Z,-3.10
2022-11-20T19:09:43.115Z,-3.13
2022-11-20T19:12:11.455Z,-3.04
2022-11-20T19:14:37.844Z,-2.97
2022-11-20T19:17:06.812Z,-2.80
2022-11-20T19:19:36.658Z,-2.89
2022-11-20T19:22:04.053Z,-2.96
2022-11-20T19:24:30.570Z,-2.92
2022-11-20T19:26:57.213Z,-2.83
2022-11-20T19:29:25.405Z,-2.77
2022-11-20T19:31:52.527Z,-2.64
2022-11-20T19:34:19.170Z,-2.52
2022-11-20T19:36:46.495Z,-2.56
2022-11-20T19:39:13.288Z,-2.43
2022-11-20T19:41:40.720Z,-2.50
2022-11-20T19:44:10.220Z,-2.52
2022-11-20T19:46:37.637Z,-2.41
2022-11-20T19:49:10.150Z,-2.21
2022-11-20T19:51:39.050Z,-2.21
2022-11-20T19:54:06.686Z,-2.13
2022-11-20T19:56:33.983Z,-2.08
2022-11-20T19:59:00.741Z,-2.09
2022-11-20T20:01:30.087Z,-2.06
2022-11-20T20:04:01.384Z,-1.98
2022-11-20T20:06:28.542Z,-1.90
2022-11-20T20:08:57.495Z,-1.87
2022-11-20T20:11:26.412Z,-1.83
2022-11-20T20:13:53.580Z,-1.80
2022-11-20T20:16:22.419Z,-1.73
2022-11-20T20:18:49.082Z,-1.77
2022-11-20T20:21:18.486Z,-1.73
2022-11-20T20:23:45.492Z,-1.73
2022-11-20T20:26:12.269Z,-1.70
2022-11-20T20:28:39.270Z,-1.67
2022-11-20T20:31:10.764Z,-1.57
2022-11-20T20:33:38.173Z,-1.55
2022-11-20T20:36:13.882Z,-1.50
2022-11-20T20:38:40.706Z,-1.53
2022-11-20T20:41:07.097Z,-1.54
2022-11-20T20:43:53.748Z,-1.52
2022-11-20T20:46:20.183Z,-1.58
2022-11-20T20:48:51.474Z,-1.66
2022-11-20T20:51:20.816Z,-1.76
2022-11-20T20:53:47.422Z,-1.86
2022-11-20T20:56:14.250Z,-1.81
2022-11-20T20:58:41.383Z,-1.79
2022-11-20T21:01:10.471Z,-1.81
2022-11-20T21:03:37.451Z,-1.84
2022-11-20T21:06:05.359Z,-1.74
2022-11-20T21:08:32.430Z,-1.78
2022-11-20T21:11:06.603Z,-1.82
2022-11-20T21:13:34.250Z,-1.79
2022-11-20T21:16:01.193Z,-1.83
2022-11-20T21:18:28.792Z,-1.76
2022-11-20T21:21:15.294Z,-1.79
2022-11-20T21:23:45.131Z,-1.93
2022-11-20T21:26:11.820Z,-2.03
2022-11-20T21:28:38.682Z,-2.16
2022-11-20T21:31:09.938Z,-2.06
2022-11-20T21:33:38.534Z,-2.02
2022-11-20T21:36:06.082Z,-1.90
2022-11-20T21:38:32.713Z,-2.13
2022-11-20T21:40:59.347Z,-2.37
2022-11-20T21:43:26.175Z,-2.27
2022-11-20T21:45:53.122Z,-2.37
2022-11-20T21:48:19.693Z,-2.57
2022-11-20T21:50:46.305Z,-2.46
2022-11-20T21:53:12.901Z,-2.52
2022-11-20T21:55:39.406Z,-2.67
2022-11-20T21:58:05.957Z,-2.37
2022-11-20T22:00:32.610Z,-2.43
2022-11-20T22:02:59.311Z,-2.56
2022-11-20T22:05:25.836Z,-2.52
2022-11-20T22:07:52.360Z,-2.55
2022-11-20T22:10:18.938Z,-2.61
2022-11-20T22:12:45.427Z,-2.57
2022-11-20T22:15:11.818Z,-2.71
2022-11-20T22:17:56.930Z,-2.66
2022-11-20T22:20:23.545Z,-2.70
2022-11-20T22:22:49.946Z,-2.73
2022-11-20T22:25:16.418Z,-2.44
2022-11-20T22:27:42.854Z,-2.50
2022-11-20T22:30:09.618Z,-2.49
2022-11-20T22:32:36.007Z,-2.62
2022-11-20T22:35:02.454Z,-2.49
2022-11-20T22:37:28.837Z,-2.63
2022-11-20T22:39:55.227Z,-2.87
2022-11-20T22:42:21.692Z,-2.90
2022-11-20T22:44:48.088Z,-2.94
2022-11-20T22:47:14.482Z,-3.10
2022-11-20T22:49:40.922Z,-3.04
2022-11-20T22:52:07.338Z,-3.06
2022-11-20T22:54:33.758Z,-3.04
2022-11-20T22:57:00.183Z,-3.20
2022-11-20T22:59:26.615Z,-3.32
2022-11-20T23:01:53.060Z,-3.46
2022-11-20T23:04:19.545Z,-3.49
2022-11-20T23:06:45.955Z,-3.62
2022-11-20T23:09:12.871Z,-3.63
2022-11-20T23:11:39.460Z,-3.70
2022-11-20T23:14:10.862Z,-3.65
2022-11-20T23:16:37.352Z,-3.70
2022-11-20T23:19:06.850Z,-3.68
2022-11-20T23:21:34.326Z,-3.69
2022-11-20T23:24:01.124Z,-3.68
2022-11-20T23:26:30.749Z,-3.41
2022-11-20T23:28:58.851Z,-3.60
2022-11-20T23:31:27.417Z,-3.64
2022-11-20T23:33:54.301Z,-3.65
2022-11-20T23:36:20.726Z,-3.63
2022-11-20T23:38:47.251Z,-3.79
2022-11-20T23:41:14.403Z,-3.71
2022-11-20T23:43:40.957Z,-3.71
2022-11-20T23:46:08.031Z,-3.63
2022-11-20T23:48:38.199Z,-3.67
2022-11-20T23:51:06.176Z,-3.74
2022-11-20T23:53:32.914Z,-3.69
2022-11-20T23:56:02.283Z,-3.71
2022-11-20T23:58:34.307Z,-3.66
